Time;durP1;ratioP1;P1;durP2;ratioP2;P2;SDS_P1;SDS_P2;PMS_P1;PMS_P2;Temp;Humidity;BMP_temperature;BMP_pressure;BME280_temperature;BME280_humidity;BME280_pressure;Samples;Min_cycle;Max_cycle;Signal;HPM_P1;HPM_P2
2021/10/23 00:01:20;;;;;;;13.07;4.97;;;;;;;;;;5012089;28;20136;-62
2021/10/23 00:03:47;;;;;;;11.18;4.53;;;;;;;;;;5012342;28;20085;-63
2021/10/23 00:06:14;;;;;;;9.77;4.30;;;;;;;;;;5011481;28;20054;-62
2021/10/23 00:08:43;;;;;;;12.20;5.70;;;;;;;;;;5011555;28;20056;-62
2021/10/23 00:11:10;;;;;;;12.82;6.55;;;;;;;;;;5011418;28;20054;-63
2021/10/23 00:13:37;;;;;;;9.18;4.22;;;;;;;;;;5011729;28;20048;-63
2021/10/23 00:16:04;;;;;;;11.55;4.63;;;;;;;;;;5011318;28;20537;-63
2021/10/23 00:18:31;;;;;;;10.43;4.35;;;;;;;;;;5011960;28;20418;-63
2021/10/23 00:20:58;;;;;;;10.73;4.00;;;;;;;;;;5011565;28;20046;-63
2021/10/23 00:23:25;;;;;;;8.82;4.10;;;;;;;;;;5011475;28;20057;-63
2021/10/23 00:25:53;;;;;;;10.75;4.40;;;;;;;;;;5011175;28;20442;-65
2021/10/23 00:28:20;;;;;;;9.55;4.50;;;;;;;;;;5011785;28;20050;-63
2021/10/23 00:30:47;;;;;;;13.65;4.38;;;;;;;;;;5011350;28;20411;-63
2021/10/23 00:33:14;;;;;;;14.50;4.28;;;;;;;;;;5011249;28;20129;-63
2021/10/23 00:35:41;;;;;;;9.10;3.63;;;;;;;;;;5011186;28;20046;-63
2021/10/23 00:38:08;;;;;;;13.35;4.03;;;;;;;;;;5011205;28;20053;-64
2021/10/23 00:40:35;;;;;;;9.68;4.28;;;;;;;;;;5011090;28;20054;-62
2021/10/23 00:43:04;;;;;;;11.98;3.92;;;;;;;;;;5014644;28;20042;-64
2021/10/23 00:45:31;;;;;;;12.27;4.20;;;;;;;;;;5014346;28;20064;-64
2021/10/23 00:47:57;;;;;;;9.45;3.60;;;;;;;;;;5014506;28;20149;-63
2021/10/23 00:50:25;;;;;;;13.07;4.63;;;;;;;;;;5014489;28;20049;-62
2021/10/23 00:52:52;;;;;;;12.85;4.05;;;;;;;;;;5014612;28;20394;-63
2021/10/23 00:55:20;;;;;;;11.45;3.55;;;;;;;;;;5014365;28;20549;-63
2021/10/23 00:57:47;;;;;;;10.77;4.82;;;;;;;;;;5033417;28;20061;-63
2021/10/23 01:00:16;;;;;;;8.18;3.50;;;;;;;;;;5034182;28;20045;-62
2021/10/23 01:02:43;;;;;;;12.43;3.70;;;;;;;;;;5034816;28;20081;-63
2021/10/23 01:05:10;;;;;;;8.90;3.70;;;;;;;;;;5033909;28;20426;-62
2021/10/23 01:07:37;;;;;;;10.15;3.60;;;;;;;;;;5034152;28;20045;-63
2021/10/23 01:10:06;;;;;;;9.18;3.30;;;;;;;;;;5033737;28;20045;-63
2021/10/23 01:12:33;;;;;;;9.10;3.80;;;;;;;;;;5034116;28;20471;-63
2021/10/23 01:15:14;;;;;;;9.32;3.53;;;;;;;;;;5033729;28;20056;-62
2021/10/23 01:17:42;;;;;;;;;;;;;;;;;;5034341;28;20409;-63
2021/10/23 01:20:11;;;;;;;8.38;3.60;;;;;;;;;;5033856;28;19925;-64
2021/10/23 01:22:39;;;;;;;11.68;3.95;;;;;;;;;;5033436;28;20136;-63
2021/10/23 01:25:07;;;;;;;8.60;3.58;;;;;;;;;;5033405;28;20071;-63
2021/10/23 01:27:34;;;;;;;10.60;3.70;;;;;;;;;;5033903;28;20042;-63
2021/10/23 01:30:01;;;;;;;10.95;3.90;;;;;;;;;;5033484;28;20132;-63
2021/10/23 01:32:28;;;;;;;7.90;3.83;;;;;;;;;;5033738;28;20598;-63
2021/10/23 01:34:55;;;;;;;9.18;3.95;;;;;;;;;;5033482;28;20050;-64
2021/10/23 01:37:34;;;;;;;11.85;4.68;;;;;;;;;;5033728;28;20059;-64
2021/10/23 01:40:01;;;;;;;9.50;3.92;;;;;;;;;;5033428;28;20045;-64
2021/10/23 01:42:28;;;;;;;7.63;3.70;;;;;;;;;;5033503;28;20045;-63
2021/10/23 01:44:55;;;;;;;8.68;3.90;;;;;;;;;;5033413;28;20450;-64
2021/10/23 01:47:23;;;;;;;9.85;4.32;;;;;;;;;;5033387;28;20071;-64
2021/10/23 01:49:50;;;;;;;9.82;3.53;;;;;;;;;;5033585;28;20053;-63
2021/10/23 01:52:17;;;;;;;8.65;3.90;;;;;;;;;;5033003;28;20053;-64
2021/10/23 01:54:45;;;;;;;9.32;3.92;;;;;;;;;;5032667;28;20050;-63
2021/10/23 01:57:12;;;;;;;19.88;4.57;;;;;;;;;;5019000;28;20050;-63
2021/10/23 01:59:39;;;;;;;20.02;4.93;;;;;;;;;;5013715;28;20499;-64
2021/10/23 02:02:06;;;;;;;12.30;4.47;;;;;;;;;;5013219;28;20046;-64
2021/10/23 02:04:33;;;;;;;17.60;4.78;;;;;;;;;;5013136;28;20046;-64
2021/10/23 02:07:00;;;;;;;9.05;4.25;;;;;;;;;;5012940;28;20412;-62
2021/10/23 02:09:27;;;;;;;11.20;4.93;;;;;;;;;;5058952;22;20055;-78
2021/10/23 02:11:55;;;;;;;14.02;5.50;;;;;;;;;;5045685;28;20100;-77
2021/10/23 02:14:22;;;;;;;9.55;4.72;;;;;;;;;;5042695;28;20115;-78
2021/10/23 02:16:49;;;;;;;10.40;4.03;;;;;;;;;;5036211;28;20393;-80
2021/10/23 02:19:15;;;;;;;14.05;4.70;;;;;;;;;;5036935;28;20396;-80
2021/10/23 02:21:42;;;;;;;9.68;4.10;;;;;;;;;;5037256;28;20045;-79
2021/10/23 02:24:09;;;;;;;13.05;4.72;;;;;;;;;;5037709;28;20096;-79
2021/10/23 02:26:36;;;;;;;9.38;3.42;;;;;;;;;;5037286;28;20050;-79
2021/10/23 02:29:04;;;;;;;9.18;4.00;;;;;;;;;;5037586;28;20056;-79
2021/10/23 02:31:31;;;;;;;13.65;4.50;;;;;;;;;;5037198;28;20522;-79
2021/10/23 02:33:58;;;;;;;8.70;4.18;;;;;;;;;;5037519;28;20041;-79
2021/10/23 02:36:25;;;;;;;10.20;3.80;;;;;;;;;;5036900;28;20057;-79
2021/10/23 02:38:52;;;;;;;9.38;4.40;;;;;;;;;;5037489;28;20056;-79
2021/10/23 02:41:22;;;;;;;9.65;4.15;;;;;;;;;;5037178;28;20049;-79
2021/10/23 02:43:49;;;;;;;8.05;3.72;;;;;;;;;;5037448;28;20045;-79
2021/10/23 02:46:17;;;;;;;9.50;3.75;;;;;;;;;;5036350;28;20049;-79
2021/10/23 02:48:44;;;;;;;8.25;3.65;;;;;;;;;;5038245;28;20041;-79
2021/10/23 02:51:11;;;;;;;8.18;3.60;;;;;;;;;;5038675;28;20088;-79
2021/10/23 02:53:37;;;;;;;7.60;3.60;;;;;;;;;;5035456;28;20103;-79
2021/10/23 02:56:05;;;;;;;16.58;6.28;;;;;;;;;;5036542;28;20528;-79
2021/10/23 02:58:32;;;;;;;9.43;3.90;;;;;;;;;;5038450;28;20060;-79
2021/10/23 03:00:59;;;;;;;12.02;4.40;;;;;;;;;;5039487;28;20053;-79
2021/10/23 03:03:27;;;;;;;8.13;3.17;;;;;;;;;;5036549;28;20103;-79
2021/10/23 03:05:54;;;;;;;8.75;3.50;;;;;;;;;;5035883;28;20068;-77
2021/10/23 03:08:21;;;;;;;6.85;4.03;;;;;;;;;;5036240;28;20041;-78
2021/10/23 03:10:47;;;;;;;9.00;3.53;;;;;;;;;;5036202;28;20056;-78
2021/10/23 03:13:17;;;;;;;15.68;5.57;;;;;;;;;;5036263;28;20099;-78
2021/10/23 03:15:44;;;;;;;10.23;4.50;;;;;;;;;;5036056;28;20053;-79
2021/10/23 03:18:11;;;;;;;12.52;4.30;;;;;;;;;;5035977;28;20081;-80
2021/10/23 03:20:39;;;;;;;8.95;4.47;;;;;;;;;;5049868;28;20052;-77
2021/10/23 03:23:06;;;;;;;11.98;3.97;;;;;;;;;;5060145;28;20048;-77
2021/10/23 03:25:33;;;;;;;10.40;4.15;;;;;;;;;;5056862;28;20071;-77
2021/10/23 03:28:00;;;;;;;10.63;4.18;;;;;;;;;;5058774;28;20041;-77
2021/10/23 03:30:27;;;;;;;11.82;4.00;;;;;;;;;;5052070;28;20057;-77
2021/10/23 03:32:53;;;;;;;14.70;4.45;;;;;;;;;;5048786;28;20046;-77
2021/10/23 03:35:20;;;;;;;8.95;4.57;;;;;;;;;;5048950;28;20103;-78
2021/10/23 03:37:49;;;;;;;9.10;3.53;;;;;;;;;;5051069;28;20037;-78
2021/10/23 03:40:15;;;;;;;15.40;4.10;;;;;;;;;;5047733;28;20088;-78
2021/10/23 03:42:42;;;;;;;8.88;3.15;;;;;;;;;;5042142;28;20050;-78
2021/10/23 03:45:09;;;;;;;13.27;4.43;;;;;;;;;;5039867;28;20084;-78
2021/10/23 03:47:36;;;;;;;7.20;3.40;;;;;;;;;;5045798;28;20046;-78
2021/10/23 03:50:04;;;;;;;14.25;3.67;;;;;;;;;;5044593;28;20065;-78
2021/10/23 03:52:31;;;;;;;8.38;3.28;;;;;;;;;;5036504;28;20069;-79
2021/10/23 03:54:59;;;;;;;11.82;4.57;;;;;;;;;;5036279;28;20120;-79
2021/10/23 03:57:26;;;;;;;11.05;3.30;;;;;;;;;;5052074;28;20049;-79
2021/10/23 03:59:53;;;;;;;10.00;3.80;;;;;;;;;;5055099;28;20503;-78
2021/10/23 04:02:20;;;;;;;8.82;3.97;;;;;;;;;;5055256;28;20045;-79
2021/10/23 04:04:47;;;;;;;8.57;3.40;;;;;;;;;;5055035;28;20045;-78
2021/10/23 04:07:13;;;;;;;9.23;3.88;;;;;;;;;;5055296;28;20136;-78
2021/10/23 04:09:40;;;;;;;8.65;3.85;;;;;;;;;;5055241;28;20503;-78
2021/10/23 04:12:09;;;;;;;8.52;4.18;;;;;;;;;;5055678;28;20075;-78
2021/10/23 04:14:35;;;;;;;8.93;3.45;;;;;;;;;;5055134;28;20458;-78
2021/10/23 04:17:02;;;;;;;11.13;3.47;;;;;;;;;;5057994;28;20459;-78
2021/10/23 04:19:29;;;;;;;8.20;4.32;;;;;;;;;;5063043;28;20056;-78
2021/10/23 04:21:56;;;;;;;12.18;4.68;;;;;;;;;;5080574;28;20048;-78
2021/10/23 04:24:23;;;;;;;10.20;3.80;;;;;;;;;;5069703;28;20467;-79
2021/10/23 04:26:52;;;;;;;10.63;4.43;;;;;;;;;;5060256;28;20045;-78
2021/10/23 04:29:20;;;;;;;11.77;3.67;;;;;;;;;;5059365;28;20041;-80
2021/10/23 04:31:47;;;;;;;15.00;4.07;;;;;;;;;;5059556;28;20099;-80
2021/10/23 04:34:14;;;;;;;8.98;3.70;;;;;;;;;;5060433;28;20045;-80
2021/10/23 04:36:41;;;;;;;11.15;3.28;;;;;;;;;;5058893;28;20450;-79
2021/10/23 04:39:08;;;;;;;8.73;4.68;;;;;;;;;;5058920;28;20048;-79
2021/10/23 04:41:35;;;;;;;8.73;3.88;;;;;;;;;;5058015;28;20103;-78
2021/10/23 04:44:01;;;;;;;7.03;3.40;;;;;;;;;;5058400;28;20053;-78
2021/10/23 04:46:29;;;;;;;9.85;3.58;;;;;;;;;;5058020;28;20503;-79
2021/10/23 04:48:56;;;;;;;9.52;3.60;;;;;;;;;;5057727;28;20052;-78
2021/10/23 04:51:23;;;;;;;11.18;3.20;;;;;;;;;;5058422;28;20492;-78
2021/10/23 04:53:50;;;;;;;12.85;3.80;;;;;;;;;;5058084;28;20462;-78
2021/10/23 04:56:17;;;;;;;9.23;3.65;;;;;;;;;;5051724;28;20045;-79
2021/10/23 04:58:45;;;;;;;9.68;3.80;;;;;;;;;;5037327;28;20540;-78
2021/10/23 05:01:12;;;;;;;10.70;3.50;;;;;;;;;;5037842;28;20076;-78
2021/10/23 05:03:40;;;;;;;7.40;3.50;;;;;;;;;;5038155;28;20558;-78
2021/10/23 05:06:07;;;;;;;7.53;4.05;;;;;;;;;;5044071;28;20042;-77
2021/10/23 05:08:33;;;;;;;7.55;3.38;;;;;;;;;;5047786;28;20049;-77
2021/10/23 05:11:00;;;;;;;9.35;3.30;;;;;;;;;;5050053;28;20103;-77
2021/10/23 05:13:27;;;;;;;8.50;3.15;;;;;;;;;;5042738;28;20050;-79
2021/10/23 05:15:54;;;;;;;8.52;4.25;;;;;;;;;;5041243;28;20045;-79
2021/10/23 05:18:21;;;;;;;10.45;4.30;;;;;;;;;;5045904;28;20079;-78
2021/10/23 05:20:49;;;;;;;11.13;4.57;;;;;;;;;;5052377;28;20055;-78
2021/10/23 05:23:16;;;;;;;7.00;3.33;;;;;;;;;;5049508;28;20045;-79
2021/10/23 05:25:43;;;;;;;10.65;3.60;;;;;;;;;;5048658;28;20127;-79
2021/10/23 05:28:10;;;;;;;8.57;3.75;;;;;;;;;;5048626;28;20100;-79
2021/10/23 05:30:37;;;;;;;10.70;3.83;;;;;;;;;;5048398;28;20068;-79
2021/10/23 05:33:04;;;;;;;9.70;3.97;;;;;;;;;;5051959;28;20040;-78
2021/10/23 05:35:31;;;;;;;9.73;3.58;;;;;;;;;;5050751;28;20045;-79
2021/10/23 05:37:59;;;;;;;10.32;4.05;;;;;;;;;;5046838;28;20443;-78
2021/10/23 05:40:26;;;;;;;7.63;4.13;;;;;;;;;;5049777;28;20041;-78
2021/10/23 05:42:53;;;;;;;9.30;4.03;;;;;;;;;;5048068;28;20103;-78
2021/10/23 05:45:19;;;;;;;8.52;4.03;;;;;;;;;;5048504;28;20044;-77
2021/10/23 05:47:46;;;;;;;11.30;3.42;;;;;;;;;;5035982;28;20108;-77
2021/10/23 05:50:13;;;;;;;10.20;3.83;;;;;;;;;;5031035;28;20049;-77
2021/10/23 05:52:41;;;;;;;11.63;3.67;;;;;;;;;;5029449;28;20080;-78
2021/10/23 05:55:10;;;;;;;7.85;3.05;;;;;;;;;;5030591;28;20051;-77
2021/10/23 05:57:36;;;;;;;9.52;3.72;;;;;;;;;;5041868;28;20076;-77
2021/10/23 06:00:07;;;;;;;9.23;3.30;;;;;;;;;;5047172;28;20041;-78
2021/10/23 06:02:34;;;;;;;8.75;3.40;;;;;;;;;;5031492;28;20411;-77
2021/10/23 06:05:02;;;;;;;10.63;3.63;;;;;;;;;;5031013;28;20045;-78
2021/10/23 06:07:31;;;;;;;9.02;3.70;;;;;;;;;;5039928;28;20049;-78
2021/10/23 06:10:00;;;;;;;9.32;3.72;;;;;;;;;;5036238;28;20049;-78
2021/10/23 06:12:30;;;;;;;7.97;3.50;;;;;;;;;;5036021;28;20412;-79
2021/10/23 06:14:58;;;;;;;7.90;3.92;;;;;;;;;;5034850;28;20050;-79
2021/10/23 06:17:25;;;;;;;8.82;4.18;;;;;;;;;;5035728;28;20041;-78
2021/10/23 06:19:52;;;;;;;15.95;5.32;;;;;;;;;;5035497;28;20059;-79
2021/10/23 06:22:18;;;;;;;14.82;5.50;;;;;;;;;;5032353;28;20049;-81
2021/10/23 06:24:45;;;;;;;12.98;5.10;;;;;;;;;;5029993;28;20057;-79
2021/10/23 06:27:12;;;;;;;9.93;4.55;;;;;;;;;;5030422;28;20075;-79
2021/10/23 06:29:40;;;;;;;10.30;4.72;;;;;;;;;;5030037;28;20544;-79
2021/10/23 06:32:07;;;;;;;9.40;4.70;;;;;;;;;;5029142;28;20128;-78
2021/10/23 06:34:34;;;;;;;7.85;3.75;;;;;;;;;;5027534;28;20083;-78
2021/10/23 06:37:01;;;;;;;9.35;3.72;;;;;;;;;;5027855;28;20049;-79
2021/10/23 06:39:28;;;;;;;10.68;4.20;;;;;;;;;;5026855;28;20053;-78
2021/10/23 06:41:55;;;;;;;9.93;3.65;;;;;;;;;;5029448;28;20045;-78
2021/10/23 06:44:21;;;;;;;7.90;4.10;;;;;;;;;;5028970;28;20042;-77
2021/10/23 06:46:49;;;;;;;12.60;4.03;;;;;;;;;;5030805;28;20061;-78
2021/10/23 06:49:16;;;;;;;9.50;4.03;;;;;;;;;;5045966;28;20108;-78
2021/10/23 06:51:43;;;;;;;9.90;4.25;;;;;;;;;;5051003;28;20072;-79
2021/10/23 06:54:10;;;;;;;10.10;4.03;;;;;;;;;;5049471;28;20058;-78
2021/10/23 06:56:37;;;;;;;11.63;4.90;;;;;;;;;;5029627;28;20050;-79
2021/10/23 06:59:04;;;;;;;11.60;4.38;;;;;;;;;;5028326;28;20053;-82
2021/10/23 07:01:31;;;;;;;10.77;4.45;;;;;;;;;;5029321;28;20049;-80
2021/10/23 07:03:59;;;;;;;13.05;5.32;;;;;;;;;;5029622;28;20104;-81
2021/10/23 07:06:26;;;;;;;11.50;4.90;;;;;;;;;;5030239;28;20041;-78
2021/10/23 07:08:53;;;;;;;47.42;14.43;;;;;;;;;;5023121;28;20041;-79
2021/10/23 07:11:20;;;;;;;31.80;10.70;;;;;;;;;;5019349;28;20037;-80
2021/10/23 07:13:46;;;;;;;22.17;7.97;;;;;;;;;;5016711;28;20041;-78
2021/10/23 07:16:13;;;;;;;15.75;5.03;;;;;;;;;;5017110;28;20045;-78
2021/10/23 07:18:40;;;;;;;18.30;6.13;;;;;;;;;;5018039;28;20733;-78
2021/10/23 07:21:08;;;;;;;12.65;6.05;;;;;;;;;;5017528;28;20416;-79
2021/10/23 07:23:35;;;;;;;12.07;4.80;;;;;;;;;;5017346;28;20052;-78
2021/10/23 07:26:02;;;;;;;11.63;5.50;;;;;;;;;;5015641;28;20108;-78
2021/10/23 07:28:29;;;;;;;13.05;4.93;;;;;;;;;;5014591;28;20049;-78
2021/10/23 07:30:56;;;;;;;10.90;4.35;;;;;;;;;;5016783;28;20061;-77
2021/10/23 07:33:22;;;;;;;11.23;4.30;;;;;;;;;;5016033;28;20104;-78
2021/10/23 07:35:49;;;;;;;9.77;4.63;;;;;;;;;;5015548;28;20049;-78
2021/10/23 07:38:17;;;;;;;12.07;5.65;;;;;;;;;;5015424;28;20049;-78
2021/10/23 07:40:45;;;;;;;14.00;5.53;;;;;;;;;;5016725;28;20045;-78
2021/10/23 07:43:12;;;;;;;14.95;5.07;;;;;;;;;;5017751;28;20058;-78
2021/10/23 07:45:39;;;;;;;13.98;5.70;;;;;;;;;;5016497;28;20041;-77
2021/10/23 07:48:06;;;;;;;10.30;5.07;;;;;;;;;;5014850;28;20480;-78
2021/10/23 07:50:33;;;;;;;12.63;5.03;;;;;;;;;;5019032;28;20517;-79
2021/10/23 07:53:02;;;;;;;10.57;5.05;;;;;;;;;;5021244;28;20096;-80
2021/10/23 07:55:32;;;;;;;12.02;4.90;;;;;;;;;;5021458;28;20053;-78
2021/10/23 07:57:59;;;;;;;12.55;5.22;;;;;;;;;;5021163;28;20042;-77
2021/10/23 08:00:26;;;;;;;12.05;5.57;;;;;;;;;;5020770;28;20045;-79
2021/10/23 08:02:53;;;;;;;23.20;9.43;;;;;;;;;;5020605;28;20092;-77
2021/10/23 08:05:21;;;;;;;15.18;5.20;;;;;;;;;;5021607;28;20076;-79
2021/10/23 08:07:48;;;;;;;13.40;4.72;;;;;;;;;;5025194;28;20103;-78
2021/10/23 08:10:15;;;;;;;14.93;5.78;;;;;;;;;;5121725;22;20148;-62
2021/10/23 08:12:45;;;;;;;10.73;4.90;;;;;;;;;;5120867;27;20051;-63
2021/10/23 08:15:12;;;;;;;10.02;4.85;;;;;;;;;;5120872;27;20047;-63
2021/10/23 08:17:39;;;;;;;11.27;4.20;;;;;;;;;;5119255;27;20419;-61
2021/10/23 08:20:08;;;;;;;10.20;4.65;;;;;;;;;;5121193;27;20066;-62
2021/10/23 08:22:35;;;;;;;13.38;4.65;;;;;;;;;;5121086;27;20044;-62
2021/10/23 08:25:05;;;;;;;13.38;4.78;;;;;;;;;;5120944;27;20051;-62
2021/10/23 08:27:33;;;;;;;15.98;6.20;;;;;;;;;;5119260;27;20046;-63
2021/10/23 08:30:03;;;;;;;14.32;6.30;;;;;;;;;;5118879;27;20043;-62
2021/10/23 08:32:30;;;;;;;18.27;6.95;;;;;;;;;;5120233;27;20491;-63
2021/10/23 08:34:57;;;;;;;18.40;8.40;;;;;;;;;;5118371;27;20478;-63
2021/10/23 08:37:24;;;;;;;21.52;7.35;;;;;;;;;;5118869;27;20463;-62
2021/10/23 08:39:51;;;;;;;12.02;5.75;;;;;;;;;;5118223;27;20043;-65
2021/10/23 08:42:19;;;;;;;9.77;5.13;;;;;;;;;;5119605;27;20062;-63
2021/10/23 08:44:46;;;;;;;12.73;5.32;;;;;;;;;;5114308;27;20055;-62
2021/10/23 08:47:15;;;;;;;10.80;4.45;;;;;;;;;;5116527;27;20157;-62
2021/10/23 08:49:44;;;;;;;8.07;3.88;;;;;;;;;;5116447;27;20050;-63
2021/10/23 08:52:12;;;;;;;13.20;5.03;;;;;;;;;;5116737;27;20055;-61
2021/10/23 08:54:40;;;;;;;11.60;5.07;;;;;;;;;;5118540;27;20047;-62
2021/10/23 08:57:07;;;;;;;12.82;4.53;;;;;;;;;;5116507;27;20430;-63
2021/10/23 08:59:34;;;;;;;13.63;5.45;;;;;;;;;;5118221;27;20048;-63
2021/10/23 09:02:02;;;;;;;10.55;5.25;;;;;;;;;;5119248;27;20050;-63
2021/10/23 09:04:32;;;;;;;11.68;4.65;;;;;;;;;;5120632;27;20043;-63
2021/10/23 09:07:07;;;;;;;36.92;11.77;;;;;;;;;;5118819;27;20046;-62
2021/10/23 09:09:44;;;;;;;20.23;6.88;;;;;;;;;;5116529;27;20046;-62
2021/10/23 09:12:17;;;;;;;11.05;4.80;;;;;;;;;;5118277;27;20138;-62
2021/10/23 09:14:44;;;;;;;11.90;4.93;;;;;;;;;;5118453;27;20353;-62
2021/10/23 09:17:13;;;;;;;11.68;4.75;;;;;;;;;;5117341;27;20052;-62
2021/10/23 09:19:44;;;;;;;11.05;5.05;;;;;;;;;;5118911;27;20059;-62
2021/10/23 09:22:32;;;;;;;31.08;15.35;;;;;;;;;;5119072;27;20129;-62
2021/10/23 09:25:18;;;;;;;17.55;9.15;;;;;;;;;;5118033;27;20163;-63
2021/10/23 09:27:56;;;;;;;16.88;5.88;;;;;;;;;;5118594;27;20048;-62
2021/10/23 09:30:30;;;;;;;7.90;4.38;;;;;;;;;;5118091;27;20050;-63
2021/10/23 09:32:59;;;;;;;11.05;4.55;;;;;;;;;;5118622;27;20043;-63
2021/10/23 09:35:28;;;;;;;14.40;5.80;;;;;;;;;;5119756;27;20055;-63
2021/10/23 09:37:58;;;;;;;10.90;5.20;;;;;;;;;;5116937;27;20422;-62
2021/10/23 09:40:27;;;;;;;10.63;5.90;;;;;;;;;;5119608;27;20492;-62
2021/10/23 09:43:15;;;;;;;16.73;7.22;;;;;;;;;;5119326;27;20047;-62
2021/10/23 09:46:02;;;;;;;17.60;6.28;;;;;;;;;;5119561;27;20035;-63
2021/10/23 09:48:31;;;;;;;10.00;5.22;;;;;;;;;;5118589;27;20061;-63
2021/10/23 09:51:10;;;;;;;13.48;6.22;;;;;;;;;;5117704;27;20096;-64
2021/10/23 09:53:37;;;;;;;12.40;4.95;;;;;;;;;;5118140;27;20408;-64
2021/10/23 09:56:07;;;;;;;9.95;4.88;;;;;;;;;;5118694;27;20043;-63
2021/10/23 09:58:34;;;;;;;10.63;5.28;;;;;;;;;;5116782;27;20036;-63
2021/10/23 10:01:01;;;;;;;13.60;6.25;;;;;;;;;;5119404;27;20039;-63
2021/10/23 10:03:29;;;;;;;16.13;4.75;;;;;;;;;;5117563;27;20040;-63
2021/10/23 10:05:57;;;;;;;7.57;4.30;;;;;;;;;;5118198;27;20051;-63
2021/10/23 10:08:27;;;;;;;11.18;5.13;;;;;;;;;;5117388;27;20079;-63
2021/10/23 10:10:55;;;;;;;11.60;5.05;;;;;;;;;;5120539;27;20039;-64
2021/10/23 10:13:24;;;;;;;8.27;4.60;;;;;;;;;;5118950;27;20040;-64
2021/10/23 10:15:54;;;;;;;7.07;3.80;;;;;;;;;;5117071;27;20040;-63
2021/10/23 10:18:22;;;;;;;9.37;4.50;;;;;;;;;;5118835;27;20044;-63
2021/10/23 10:20:51;;;;;;;11.77;5.68;;;;;;;;;;5117382;27;20288;-63
2021/10/23 10:23:19;;;;;;;8.57;4.38;;;;;;;;;;5118101;27;20582;-62
2021/10/23 10:26:18;;;;;;;12.25;5.00;;;;;;;;;;5118711;27;20278;-63
2021/10/23 10:29:26;;;;;;;10.13;5.47;;;;;;;;;;5115738;27;20044;-62
2021/10/23 10:31:57;;;;;;;12.15;5.50;;;;;;;;;;5098290;27;20126;-63
2021/10/23 10:35:03;;;;;;;12.07;5.20;;;;;;;;;;5116919;27;20046;-63
2021/10/23 10:37:51;;;;;;;12.23;5.43;;;;;;;;;;5116608;27;20409;-63
2021/10/23 10:43:17;;;;;;;15.20;5.45;;;;;;;;;;5110054;27;20446;-63
2021/10/23 10:45:53;;;;;;;10.40;4.80;;;;;;;;;;5116139;27;20044;-63
2021/10/23 10:48:22;;;;;;;10.73;5.13;;;;;;;;;;5118222;27;20053;-64
2021/10/23 10:50:50;;;;;;;13.65;7.93;;;;;;;;;;5116917;27;20404;-63
2021/10/23 10:53:20;;;;;;;11.02;5.40;;;;;;;;;;5118883;27;20544;-63
2021/10/23 10:55:49;;;;;;;11.65;5.95;;;;;;;;;;5117500;27;20513;-63
2021/10/23 10:58:18;;;;;;;9.32;4.13;;;;;;;;;;5118570;27;20048;-64
2021/10/23 11:01:16;;;;;;;9.70;4.57;;;;;;;;;;5115960;27;20043;-61
2021/10/23 11:04:03;;;;;;;7.53;4.38;;;;;;;;;;5116082;27;20411;-63
2021/10/23 11:06:53;;;;;;;9.43;4.63;;;;;;;;;;5117642;27;20052;-64
2021/10/23 11:09:50;;;;;;;14.68;6.65;;;;;;;;;;5112500;27;20487;-63
2021/10/23 11:12:21;;;;;;;8.38;4.00;;;;;;;;;;5116250;27;20506;-62
2021/10/23 11:14:50;;;;;;;8.00;4.63;;;;;;;;;;5118726;27;20043;-63
2021/10/23 11:17:18;;;;;;;8.75;4.43;;;;;;;;;;5118705;27;20082;-62
2021/10/23 11:19:48;;;;;;;12.43;5.50;;;;;;;;;;5114910;27;20061;-64
2021/10/23 11:22:18;;;;;;;18.50;9.70;;;;;;;;;;5118666;27;20078;-63
2021/10/23 11:24:47;;;;;;;10.03;5.43;;;;;;;;;;5118624;27;20046;-63
2021/10/23 11:27:35;;;;;;;14.93;5.22;;;;;;;;;;5117760;27;20301;-63
2021/10/23 11:30:12;;;;;;;37.20;11.82;;;;;;;;;;5119030;27;20092;-62
2021/10/23 11:32:41;;;;;;;13.07;5.63;;;;;;;;;;5116292;28;20042;-64
2021/10/23 11:35:10;;;;;;;29.15;11.02;;;;;;;;;;5119334;28;20557;-64
2021/10/23 11:37:38;;;;;;;10.85;4.30;;;;;;;;;;5118643;28;20070;-63
2021/10/23 11:40:07;;;;;;;8.55;3.90;;;;;;;;;;5119630;28;20040;-64
2021/10/23 11:42:35;;;;;;;7.20;3.60;;;;;;;;;;5119738;28;20044;-63
2021/10/23 11:45:14;;;;;;;7.32;4.20;;;;;;;;;;5117777;28;20546;-63
2021/10/23 11:47:41;;;;;;;8.57;3.78;;;;;;;;;;5117259;28;20043;-63
2021/10/23 11:50:18;;;;;;;7.97;2.88;;;;;;;;;;5116652;28;20407;-63
2021/10/23 11:52:50;;;;;;;7.43;2.70;;;;;;;;;;5117233;28;20051;-63
2021/10/23 11:55:26;;;;;;;7.80;3.55;;;;;;;;;;5116513;28;20047;-63
2021/10/23 11:57:56;;;;;;;10.27;3.55;;;;;;;;;;5116901;28;20138;-63
2021/10/23 12:00:26;;;;;;;23.40;9.80;;;;;;;;;;5116547;28;20553;-63
2021/10/23 12:02:57;;;;;;;10.18;4.18;;;;;;;;;;5115520;28;20047;-63
2021/10/23 12:05:26;;;;;;;15.25;6.68;;;;;;;;;;5117004;28;20572;-70
2021/10/23 12:08:15;;;;;;;14.25;6.78;;;;;;;;;;5116903;28;20050;-63
2021/10/23 12:11:16;;;;;;;25.05;13.05;;;;;;;;;;5108971;28;20043;-63
2021/10/23 12:13:49;;;;;;;12.15;5.13;;;;;;;;;;5097073;28;20047;-63
2021/10/23 12:16:19;;;;;;;16.85;7.88;;;;;;;;;;5117450;28;20040;-63
2021/10/23 12:18:47;;;;;;;10.50;5.72;;;;;;;;;;5117142;28;20413;-62
2021/10/23 12:21:17;;;;;;;12.75;5.32;;;;;;;;;;5117772;28;20406;-63
2021/10/23 12:23:50;;;;;;;7.63;4.20;;;;;;;;;;5115944;28;20047;-64
2021/10/23 12:26:18;;;;;;;8.38;4.18;;;;;;;;;;5117540;28;20446;-63
2021/10/23 12:29:03;;;;;;;9.23;4.65;;;;;;;;;;5115751;28;20043;-64
2021/10/23 12:32:03;;;;;;;9.63;4.25;;;;;;;;;;5119588;28;20046;-63
2021/10/23 12:35:01;;;;;;;9.25;4.28;;;;;;;;;;5116871;28;20051;-71
2021/10/23 12:37:37;;;;;;;8.63;3.95;;;;;;;;;;5118962;27;20051;-63
2021/10/23 12:40:11;;;;;;;10.25;4.57;;;;;;;;;;5117029;27;20115;-66
2021/10/23 12:42:39;;;;;;;8.10;4.18;;;;;;;;;;5120566;27;20043;-65
2021/10/23 12:45:09;;;;;;;7.57;3.67;;;;;;;;;;5120149;27;20054;-66
2021/10/23 12:47:36;;;;;;;9.75;4.80;;;;;;;;;;5120633;27;20070;-65
2021/10/23 12:50:05;;;;;;;11.38;6.25;;;;;;;;;;5119232;27;20053;-65
2021/10/23 12:52:33;;;;;;;17.67;7.43;;;;;;;;;;5118723;27;20051;-66
2021/10/23 12:55:01;;;;;;;12.52;5.78;;;;;;;;;;5117333;27;20411;-66
2021/10/23 12:57:29;;;;;;;27.52;11.18;;;;;;;;;;5120072;27;20072;-65
2021/10/23 12:59:56;;;;;;;16.00;8.52;;;;;;;;;;5118151;27;20488;-64
2021/10/23 13:02:23;;;;;;;17.00;7.90;;;;;;;;;;5119877;27;20498;-63
2021/10/23 13:04:50;;;;;;;12.18;6.00;;;;;;;;;;5120549;27;20073;-63
2021/10/23 13:07:18;;;;;;;30.13;11.25;;;;;;;;;;5117634;27;20473;-64
2021/10/23 13:09:46;;;;;;;15.68;7.15;;;;;;;;;;5120162;27;20550;-66
2021/10/23 13:12:13;;;;;;;10.00;5.85;;;;;;;;;;5118443;27;20044;-66
2021/10/23 13:14:40;;;;;;;8.60;4.30;;;;;;;;;;5119115;27;20043;-65
2021/10/23 13:17:07;;;;;;;55.63;17.33;;;;;;;;;;5120590;27;20055;-66
2021/10/23 13:19:34;;;;;;;28.23;10.82;;;;;;;;;;5118262;27;20039;-64
2021/10/23 13:22:02;;;;;;;15.52;6.82;;;;;;;;;;5117703;27;20046;-62
2021/10/23 13:24:30;;;;;;;13.05;5.95;;;;;;;;;;5118726;27;20438;-63
2021/10/23 13:26:57;;;;;;;7.35;2.58;;;;;;;;;;5117979;27;20057;-62
2021/10/23 13:29:24;;;;;;;6.25;3.08;;;;;;;;;;5118602;27;20043;-63
2021/10/23 13:31:51;;;;;;;17.75;7.22;;;;;;;;;;5118230;27;20040;-63
2021/10/23 13:34:19;;;;;;;15.85;6.30;;;;;;;;;;5118628;27;20057;-63
2021/10/23 13:36:46;;;;;;;8.32;3.55;;;;;;;;;;5118318;27;20058;-63
2021/10/23 13:39:13;;;;;;;11.13;5.93;;;;;;;;;;5117995;27;20074;-62
2021/10/23 13:41:41;;;;;;;12.45;5.38;;;;;;;;;;5118311;27;20051;-64
2021/10/23 13:44:08;;;;;;;10.20;5.13;;;;;;;;;;5118351;27;20051;-63
2021/10/23 13:46:35;;;;;;;10.15;5.13;;;;;;;;;;5117893;27;20422;-64
2021/10/23 13:49:02;;;;;;;11.38;5.43;;;;;;;;;;5118405;27;20570;-64
2021/10/23 13:51:29;;;;;;;15.20;7.75;;;;;;;;;;5117789;27;20399;-63
2021/10/23 13:53:56;;;;;;;10.23;4.15;;;;;;;;;;5117080;27;20035;-63
2021/10/23 13:56:23;;;;;;;9.70;4.30;;;;;;;;;;5117613;27;20039;-64
2021/10/23 13:58:51;;;;;;;7.07;3.35;;;;;;;;;;5117661;27;20050;-64
2021/10/23 14:01:18;;;;;;;9.77;4.13;;;;;;;;;;5118638;27;20695;-64
2021/10/23 14:03:46;;;;;;;9.82;3.70;;;;;;;;;;5117939;27;20048;-63
2021/10/23 14:06:13;;;;;;;10.18;4.72;;;;;;;;;;5117331;27;20043;-64
2021/10/23 14:08:40;;;;;;;6.90;3.35;;;;;;;;;;5117722;27;20039;-62
2021/10/23 14:11:07;;;;;;;7.95;4.28;;;;;;;;;;5117800;27;20054;-63
2021/10/23 14:13:34;;;;;;;10.93;4.80;;;;;;;;;;5117899;27;20047;-64
2021/10/23 14:16:03;;;;;;;11.55;4.90;;;;;;;;;;5122247;22;20048;-62
2021/10/23 14:18:30;;;;;;;13.32;5.93;;;;;;;;;;5078572;28;20048;-61
2021/10/23 14:20:58;;;;;;;13.20;5.70;;;;;;;;;;5070044;28;20103;-61
2021/10/23 14:23:26;;;;;;;9.15;5.13;;;;;;;;;;5058293;28;20131;-64
2021/10/23 14:25:54;;;;;;;8.57;3.92;;;;;;;;;;5054542;28;20051;-64
2021/10/23 14:28:44;;;;;;;9.45;4.13;;;;;;;;;;5057503;28;20055;-61
2021/10/23 14:31:14;;;;;;;7.68;3.90;;;;;;;;;;5058066;28;20488;-62
2021/10/23 14:33:42;;;;;;;8.00;4.40;;;;;;;;;;5058528;28;20131;-59
2021/10/23 14:36:10;;;;;;;6.65;3.20;;;;;;;;;;5058547;28;20052;-59
2021/10/23 14:38:38;;;;;;;6.85;3.95;;;;;;;;;;5059448;28;20561;-60
2021/10/23 14:41:07;;;;;;;8.88;4.57;;;;;;;;;;5055622;28;20533;-59
2021/10/23 14:43:35;;;;;;;9.95;4.97;;;;;;;;;;5058299;28;20040;-60
2021/10/23 14:46:02;;;;;;;9.63;5.25;;;;;;;;;;5058159;28;20065;-59
2021/10/23 14:48:31;;;;;;;11.27;6.57;;;;;;;;;;5057774;28;20045;-60
2021/10/23 14:50:58;;;;;;;10.57;5.50;;;;;;;;;;5057000;28;20135;-60